createdAt,value
2023-07-22T00:00:02.920Z,26.95
2023-07-22T00:00:12.922Z,26.96
2023-07-22T00:00:22.929Z,26.95
2023-07-22T00:00:32.941Z,26.96
2023-07-22T00:00:42.985Z,26.95
2023-07-22T00:00:53.042Z,26.96
2023-07-22T00:01:03.126Z,26.96
2023-07-22T00:01:13.170Z,26.96
2023-07-22T00:01:23.307Z,26.96
2023-07-22T00:01:33.298Z,26.95
2023-07-22T00:01:43.321Z,26.95
2023-07-22T00:01:53.325Z,26.97
2023-07-22T00:02:03.465Z,26.96
2023-07-22T00:02:13.486Z,26.96
2023-07-22T00:02:23.505Z,26.96
2023-07-22T00:02:33.593Z,26.97
2023-07-22T00:02:43.691Z,26.97
2023-07-22T00:02:53.718Z,26.97
2023-07-22T00:03:03.847Z,26.97
2023-07-22T00:03:13.890Z,26.97
2023-07-22T00:03:24.124Z,26.97
2023-07-22T00:03:33.934Z,26.98
2023-07-22T00:03:44.139Z,26.97
2023-07-22T00:03:54.207Z,26.97
2023-07-22T00:04:04.262Z,26.97
2023-07-22T00:04:14.270Z,26.97
2023-07-22T00:04:24.281Z,26.97
2023-07-22T00:04:34.288Z,26.96
2023-07-22T00:04:44.309Z,26.97
2023-07-22T00:04:54.297Z,26.96
2023-07-22T00:05:04.326Z,26.97
2023-07-22T00:05:14.339Z,26.97
2023-07-22T00:05:24.349Z,26.97
2023-07-22T00:05:34.361Z,26.97
2023-07-22T00:05:44.366Z,26.97
2023-07-22T00:05:54.379Z,26.97
2023-07-22T00:06:04.396Z,26.97
2023-07-22T00:06:14.404Z,26.97
2023-07-22T00:06:24.611Z,26.97
2023-07-22T00:06:34.442Z,26.97
2023-07-22T00:06:44.455Z,26.97
2023-07-22T00:06:54.466Z,26.97
2023-07-22T00:07:04.480Z,26.97
2023-07-22T00:07:14.486Z,26.98
2023-07-22T00:07:24.487Z,26.98
2023-07-22T00:07:34.489Z,26.98
2023-07-22T00:07:44.506Z,26.98
2023-07-22T00:07:54.516Z,26.98
2023-07-22T00:08:04.525Z,26.98
2023-07-22T00:08:14.537Z,26.98
2023-07-22T00:08:24.553Z,26.98
2023-07-22T00:08:34.552Z,26.98
2023-07-22T00:08:44.627Z,26.98
2023-07-22T00:08:54.628Z,26.98
2023-07-22T00:09:04.647Z,26.98
2023-07-22T00:09:14.663Z,26.98
2023-07-22T00:09:24.667Z,26.97
2023-07-22T00:09:34.672Z,26.97
2023-07-22T00:09:44.674Z,26.98
2023-07-22T00:09:54.699Z,26.97
2023-07-22T00:10:04.703Z,26.97
2023-07-22T00:10:14.717Z,26.97
2023-07-22T00:10:24.723Z,26.97
2023-07-22T00:10:34.760Z,26.96
2023-07-22T00:10:44.771Z,26.97
2023-07-22T00:10:54.793Z,26.97
2023-07-22T00:11:04.795Z,26.97
2023-07-22T00:11:14.822Z,26.97
2023-07-22T00:11:24.836Z,26.97
2023-07-22T00:11:34.845Z,26.97
2023-07-22T00:11:44.844Z,26.96
2023-07-22T00:11:54.865Z,26.96
2023-07-22T00:12:04.874Z,26.96
2023-07-22T00:12:14.888Z,26.97
2023-07-22T00:12:24.891Z,26.97
2023-07-22T00:12:34.904Z,26.97
2023-07-22T00:12:44.903Z,26.96
2023-07-22T00:12:54.911Z,26.96
2023-07-22T00:13:04.957Z,26.96
2023-07-22T00:13:14.945Z,26.96
2023-07-22T00:13:24.951Z,26.96
2023-07-22T00:13:34.986Z,26.96
2023-07-22T00:13:45.007Z,26.95
2023-07-22T00:13:55.008Z,26.95
2023-07-22T00:14:05.012Z,26.95
2023-07-22T00:14:15.031Z,26.95
2023-07-22T00:14:25.036Z,26.95
2023-07-22T00:14:35.041Z,26.94
2023-07-22T00:14:45.067Z,26.95
2023-07-22T00:14:55.081Z,26.94
2023-07-22T00:15:05.085Z,26.95
2023-07-22T00:15:15.091Z,26.95
2023-07-22T00:15:25.122Z,26.95
2023-07-22T00:15:35.125Z,26.95
2023-07-22T00:15:45.121Z,26.95
2023-07-22T00:15:55.128Z,26.95
2023-07-22T00:16:05.250Z,26.95
2023-07-22T00:16:15.207Z,26.95
2023-07-22T00:16:25.688Z,26.94
2023-07-22T00:16:35.281Z,26.94
2023-07-22T00:16:45.314Z,26.95
2023-07-22T00:16:55.387Z,26.95
2023-07-22T00:17:05.410Z,26.94
2023-07-22T00:17:15.492Z,26.94
2023-07-22T00:17:25.509Z,26.95
2023-07-22T00:17:35.555Z,26.95
2023-07-22T00:17:45.623Z,26.95
2023-07-22T00:17:55.680Z,26.95
2023-07-22T00:18:05.707Z,26.95
2023-07-22T00:18:15.723Z,26.95
2023-07-22T00:18:25.752Z,26.95
2023-07-22T00:18:35.764Z,26.95
2023-07-22T00:18:45.767Z,26.95
2023-07-22T00:18:55.771Z,26.95
2023-07-22T00:19:05.778Z,26.95
2023-07-22T00:19:15.788Z,26.94
2023-07-22T00:19:25.798Z,26.95
2023-07-22T00:19:35.830Z,26.95
2023-07-22T00:19:45.817Z,26.96
2023-07-22T00:19:55.833Z,26.96
2023-07-22T00:20:05.842Z,26.96
2023-07-22T00:20:15.862Z,26.96
2023-07-22T00:20:25.866Z,26.95
2023-07-22T00:20:35.864Z,26.96
2023-07-22T00:20:45.877Z,26.97
2023-07-22T00:20:55.897Z,26.96
2023-07-22T00:21:05.892Z,26.96
2023-07-22T00:21:15.907Z,26.96
2023-07-22T00:21:25.920Z,26.96
2023-07-22T00:21:35.931Z,26.96
2023-07-22T00:21:45.971Z,26.97
2023-07-22T00:21:55.979Z,26.96
2023-07-22T00:22:05.986Z,26.96
2023-07-22T00:22:16.005Z,26.97
2023-07-22T00:22:26.011Z,26.96
2023-07-22T00:22:36.027Z,26.97
2023-07-22T00:22:46.103Z,26.96
2023-07-22T00:22:56.123Z,26.96
2023-07-22T00:23:06.139Z,26.96
2023-07-22T00:23:16.126Z,26.96
2023-07-22T00:23:26.142Z,26.96
2023-07-22T00:23:36.145Z,26.96
2023-07-22T00:23:46.158Z,26.97
2023-07-22T00:23:56.170Z,26.97
2023-07-22T00:24:06.284Z,26.97
2023-07-22T00:24:16.275Z,26.97
2023-07-22T00:24:26.301Z,26.97
2023-07-22T00:24:36.412Z,26.97
2023-07-22T00:24:46.738Z,26.97
2023-07-22T00:24:56.757Z,26.97
2023-07-22T00:25:06.869Z,26.97
2023-07-22T00:25:16.851Z,26.97
2023-07-22T00:25:26.873Z,26.97
2023-07-22T00:25:36.875Z,26.97
2023-07-22T00:25:46.884Z,26.97
2023-07-22T00:25:56.889Z,26.97
2023-07-22T00:26:06.897Z,26.97
2023-07-22T00:26:16.898Z,26.98
2023-07-22T00:26:27.068Z,26.97
2023-07-22T00:26:36.931Z,26.97
2023-07-22T00:26:46.938Z,26.96
2023-07-22T00:26:56.965Z,26.97
2023-07-22T00:27:07.217Z,26.97
2023-07-22T00:27:17.223Z,26.97
2023-07-22T00:27:27.226Z,26.96
2023-07-22T00:27:37.232Z,26.97
2023-07-22T00:27:47.247Z,26.96
2023-07-22T00:27:57.249Z,26.97
2023-07-22T00:28:07.256Z,26.97
2023-07-22T00:28:17.264Z,26.96
2023-07-22T00:28:27.274Z,26.97
2023-07-22T00:28:37.286Z,26.97
2023-07-22T00:28:47.301Z,26.97
2023-07-22T00:28:57.307Z,26.96
2023-07-22T00:29:07.427Z,26.96
2023-07-22T00:29:17.419Z,26.96
2023-07-22T00:29:27.544Z,26.95
2023-07-22T00:29:37.548Z,26.95
2023-07-22T00:29:47.570Z,26.95
2023-07-22T00:29:57.707Z,26.95
2023-07-22T00:30:07.731Z,26.95
2023-07-22T00:30:17.736Z,26.95
2023-07-22T00:30:27.747Z,26.95
2023-07-22T00:30:37.782Z,26.95
2023-07-22T00:30:47.858Z,26.96
2023-07-22T00:30:57.870Z,26.94
2023-07-22T00:31:07.911Z,26.94
2023-07-22T00:31:17.980Z,26.94
2023-07-22T00:31:27.950Z,26.94
2023-07-22T00:31:37.986Z,26.94
2023-07-22T00:31:47.994Z,26.94
2023-07-22T00:31:58.002Z,26.94
2023-07-22T00:32:08.001Z,26.94
2023-07-22T00:32:18.011Z,26.93
2023-07-22T00:32:28.072Z,26.93
2023-07-22T00:32:38.172Z,26.93
2023-07-22T00:32:48.182Z,26.92
2023-07-22T00:32:58.235Z,26.93
2023-07-22T00:33:08.325Z,26.92
2023-07-22T00:33:18.406Z,26.91
2023-07-22T00:33:28.405Z,26.92
2023-07-22T00:33:38.448Z,26.91
2023-07-22T00:33:48.497Z,26.91
2023-07-22T00:33:58.565Z,26.92
2023-07-22T00:34:08.613Z,26.90
2023-07-22T00:34:18.629Z,26.90
2023-07-22T00:34:28.629Z,26.91
2023-07-22T00:34:38.632Z,26.90
2023-07-22T00:34:48.680Z,26.90
2023-07-22T00:34:58.693Z,26.90
2023-07-22T00:35:08.716Z,26.91
2023-07-22T00:35:18.775Z,26.90
2023-07-22T00:35:28.792Z,26.90
2023-07-22T00:35:38.800Z,26.90
2023-07-22T00:35:48.804Z,26.90
2023-07-22T00:35:58.820Z,26.90
2023-07-22T00:36:08.822Z,26.90
2023-07-22T00:36:18.867Z,26.90
2023-07-22T00:36:29.250Z,26.90
2023-07-22T00:36:38.991Z,26.90
2023-07-22T00:36:49.006Z,26.91
2023-07-22T00:36:59.005Z,26.90
2023-07-22T00:37:09.027Z,26.90
2023-07-22T00:37:19.016Z,26.90
2023-07-22T00:37:29.274Z,26.90
2023-07-22T00:37:39.284Z,26.90
2023-07-22T00:37:49.288Z,26.90
2023-07-22T00:37:59.303Z,26.90
2023-07-22T00:38:09.310Z,26.89
2023-07-22T00:38:19.365Z,26.89
2023-07-22T00:38:29.397Z,26.90
2023-07-22T00:38:39.441Z,26.89
2023-07-22T00:38:49.468Z,26.90
2023-07-22T00:38:59.519Z,26.90
2023-07-22T00:39:09.554Z,26.89
2023-07-22T00:39:19.562Z,26.90
2023-07-22T00:39:29.566Z,26.90
2023-07-22T00:39:39.570Z,26.89
2023-07-22T00:39:49.588Z,26.89
2023-07-22T00:39:59.580Z,26.88
2023-07-22T00:40:09.591Z,26.89
2023-07-22T00:40:19.609Z,26.88
2023-07-22T00:40:29.605Z,26.88
2023-07-22T00:40:39.619Z,26.88
2023-07-22T00:40:49.615Z,26.89
2023-07-22T00:40:59.625Z,26.89
2023-07-22T00:41:09.626Z,26.91
2023-07-22T00:41:19.629Z,26.90
2023-07-22T00:41:29.639Z,26.90
2023-07-22T00:41:39.651Z,26.90
2023-07-22T00:41:49.658Z,26.91
2023-07-22T00:41:59.673Z,26.91
2023-07-22T00:42:09.684Z,26.90
2023-07-22T00:42:19.698Z,26.90
2023-07-22T00:42:29.706Z,26.90
2023-07-22T00:42:39.707Z,26.90
2023-07-22T00:42:49.727Z,26.90
2023-07-22T00:42:59.738Z,26.90
2023-07-22T00:43:09.746Z,26.91
2023-07-22T00:43:19.753Z,26.91
2023-07-22T00:43:29.758Z,26.91
2023-07-22T00:43:39.768Z,26.91
2023-07-22T00:43:49.776Z,26.91
2023-07-22T00:43:59.792Z,26.92
2023-07-22T00:44:09.808Z,26.91
2023-07-22T00:44:19.848Z,26.91
2023-07-22T00:44:29.863Z,26.92
2023-07-22T00:44:39.866Z,26.92
2023-07-22T00:44:49.862Z,26.92
2023-07-22T00:44:59.870Z,26.93
2023-07-22T00:45:09.891Z,26.92
2023-07-22T00:45:19.896Z,26.92
2023-07-22T00:45:29.935Z,26.92
2023-07-22T00:45:39.946Z,26.91
2023-07-22T00:45:49.944Z,26.91
2023-07-22T00:45:59.945Z,26.91
2023-07-22T00:46:09.962Z,26.91
2023-07-22T00:46:20.032Z,26.90
2023-07-22T00:46:30.520Z,26.90
2023-07-22T00:46:40.160Z,26.90
2023-07-22T00:46:50.186Z,26.90
2023-07-22T00:47:00.255Z,26.90
2023-07-22T00:47:10.199Z,26.90
2023-07-22T00:47:20.209Z,26.90
2023-07-22T00:47:30.278Z,26.90
2023-07-22T00:47:40.368Z,26.89
2023-07-22T00:47:50.389Z,26.88
2023-07-22T00:48:00.508Z,26.88
2023-07-22T00:48:10.576Z,26.88
2023-07-22T00:48:20.597Z,26.88
2023-07-22T00:48:30.602Z,26.89
2023-07-22T00:48:40.604Z,26.88
2023-07-22T00:48:50.613Z,26.88
2023-07-22T00:49:00.613Z,26.88
2023-07-22T00:49:10.621Z,26.88
2023-07-22T00:49:20.646Z,26.88
2023-07-22T00:49:30.647Z,26.88
2023-07-22T00:49:40.650Z,26.88
2023-07-22T00:49:50.676Z,26.88
2023-07-22T00:50:00.669Z,26.88
2023-07-22T00:50:10.672Z,26.88
2023-07-22T00:50:20.691Z,26.87
2023-07-22T00:50:30.692Z,26.87
2023-07-22T00:50:40.695Z,26.87
2023-07-22T00:50:50.708Z,26.87
2023-07-22T00:51:00.716Z,26.87
2023-07-22T00:51:10.715Z,26.87
2023-07-22T00:51:20.721Z,26.87
2023-07-22T00:51:30.736Z,26.87
2023-07-22T00:51:40.749Z,26.86
2023-07-22T00:51:50.757Z,26.86
2023-07-22T00:52:00.763Z,26.87
2023-07-22T00:52:10.774Z,26.87
2023-07-22T00:52:20.786Z,26.87
2023-07-22T00:52:30.797Z,26.87
2023-07-22T00:52:40.803Z,26.87
2023-07-22T00:52:50.817Z,26.87
2023-07-22T00:53:00.821Z,26.88
2023-07-22T00:53:10.834Z,26.88
2023-07-22T00:53:20.841Z,26.88
2023-07-22T00:53:30.860Z,26.87
2023-07-22T00:53:40.863Z,26.87
2023-07-22T00:53:50.876Z,26.88
2023-07-22T00:54:00.893Z,26.88
2023-07-22T00:54:10.892Z,26.86
2023-07-22T00:54:20.904Z,26.87
2023-07-22T00:54:30.914Z,26.87
2023-07-22T00:54:40.973Z,26.87
2023-07-22T00:54:51.039Z,26.86
2023-07-22T00:55:01.100Z,26.86
2023-07-22T00:55:11.112Z,26.86
2023-07-22T00:55:21.134Z,26.86
2023-07-22T00:55:31.390Z,26.86
2023-07-22T00:55:41.402Z,26.86
2023-07-22T00:55:51.420Z,26.85
2023-07-22T00:56:01.424Z,26.85
2023-07-22T00:56:11.432Z,26.85
2023-07-22T00:56:21.550Z,26.85
2023-07-22T00:56:31.558Z,26.85
2023-07-22T00:56:41.572Z,26.85
2023-07-22T00:56:51.581Z,26.85
2023-07-22T00:57:01.577Z,26.85
2023-07-22T00:57:11.838Z,26.85
2023-07-22T00:57:21.844Z,26.85
2023-07-22T00:57:31.854Z,26.85
2023-07-22T00:57:41.874Z,26.85
2023-07-22T00:57:51.878Z,26.85
2023-07-22T00:58:01.885Z,26.85
2023-07-22T00:58:11.891Z,26.84
2023-07-22T00:58:21.930Z,26.85
2023-07-22T00:58:31.919Z,26.84
2023-07-22T00:58:41.923Z,26.84
2023-07-22T00:58:51.940Z,26.85
2023-07-22T00:59:01.950Z,26.84
2023-07-22T00:59:11.969Z,26.84
2023-07-22T00:59:21.976Z,26.83
2023-07-22T00:59:31.977Z,26.83
2023-07-22T00:59:41.987Z,26.83
2023-07-22T00:59:52.007Z,26.83
2023-07-22T01:00:02.010Z,26.83
2023-07-22T01:00:12.017Z,26.83
2023-07-22T01:00:22.028Z,26.83
2023-07-22T01:00:32.065Z,26.83
2023-07-22T01:00:42.114Z,26.84
2023-07-22T01:00:52.161Z,26.84
2023-07-22T01:01:02.268Z,26.83
2023-07-22T01:01:12.381Z,26.83
2023-07-22T01:01:22.483Z,26.83
2023-07-22T01:01:32.427Z,26.83
2023-07-22T01:01:42.497Z,26.83
2023-07-22T01:01:52.548Z,26.83
2023-07-22T01:02:02.588Z,26.82
2023-07-22T01:02:12.662Z,26.83
2023-07-22T01:02:22.853Z,26.82
2023-07-22T01:02:32.985Z,26.82
2023-07-22T01:02:42.949Z,26.82
2023-07-22T01:02:52.902Z,26.81
2023-07-22T01:03:03.085Z,26.83
2023-07-22T01:03:13.199Z,26.82
2023-07-22T01:03:23.286Z,26.82
2023-07-22T01:03:33.561Z,26.82
2023-07-22T01:03:43.564Z,26.82
2023-07-22T01:03:53.567Z,26.82
2023-07-22T01:04:03.578Z,26.83
2023-07-22T01:04:13.588Z,26.83
2023-07-22T01:04:23.595Z,26.83
2023-07-22T01:04:33.606Z,26.83
2023-07-22T01:04:43.621Z,26.83
2023-07-22T01:04:53.631Z,26.84
2023-07-22T01:05:03.649Z,26.84
2023-07-22T01:05:13.651Z,26.84
2023-07-22T01:05:23.665Z,26.84
2023-07-22T01:05:33.691Z,26.84
2023-07-22T01:05:43.695Z,26.84
2023-07-22T01:05:53.704Z,26.84
2023-07-22T01:06:03.719Z,26.84
2023-07-22T01:06:13.805Z,26.83
2023-07-22T01:06:23.782Z,26.84
2023-07-22T01:06:33.801Z,26.84
2023-07-22T01:06:43.818Z,26.84
2023-07-22T01:06:53.824Z,26.84
2023-07-22T01:07:03.835Z,26.84
2023-07-22T01:07:13.854Z,26.84
2023-07-22T01:07:23.864Z,26.84
2023-07-22T01:07:33.905Z,26.84
2023-07-22T01:07:43.930Z,26.85
2023-07-22T01:07:53.936Z,26.85
2023-07-22T01:08:03.988Z,26.85
2023-07-22T01:08:13.996Z,26.84
2023-07-22T01:08:24.004Z,26.84
2023-07-22T01:08:34.006Z,26.85
2023-07-22T01:08:44.017Z,26.86
2023-07-22T01:08:54.054Z,26.85
2023-07-22T01:09:04.046Z,26.85
2023-07-22T01:09:14.058Z,26.84
2023-07-22T01:09:24.068Z,26.85
2023-07-22T01:09:34.103Z,26.84
2023-07-22T01:09:44.122Z,26.84
2023-07-22T01:09:54.126Z,26.84
2023-07-22T01:10:04.141Z,26.84
2023-07-22T01:10:14.146Z,26.84
2023-07-22T01:10:24.161Z,26.84
2023-07-22T01:10:34.161Z,26.84
2023-07-22T01:10:44.178Z,26.84
2023-07-22T01:10:54.182Z,26.84
2023-07-22T01:11:04.195Z,26.84
2023-07-22T01:11:14.207Z,26.83
2023-07-22T01:11:24.219Z,26.83
2023-07-22T01:11:34.221Z,26.84
2023-07-22T01:11:44.235Z,26.82
2023-07-22T01:11:54.241Z,26.83
2023-07-22T01:12:04.259Z,26.82
2023-07-22T01:12:14.264Z,26.83
2023-07-22T01:12:24.280Z,26.81
2023-07-22T01:12:34.280Z,26.82
2023-07-22T01:12:44.291Z,26.82
2023-07-22T01:12:54.298Z,26.82
2023-07-22T01:13:04.313Z,26.82
2023-07-22T01:13:14.321Z,26.83
2023-07-22T01:13:24.334Z,26.82
2023-07-22T01:13:34.342Z,26.82
2023-07-22T01:13:44.375Z,26.83
2023-07-22T01:13:54.371Z,26.82
2023-07-22T01:14:04.369Z,26.82
2023-07-22T01:14:14.376Z,26.82
2023-07-22T01:14:24.388Z,26.83
2023-07-22T01:14:34.473Z,26.82
2023-07-22T01:14:44.506Z,26.83
2023-07-22T01:14:54.495Z,26.83
2023-07-22T01:15:04.500Z,26.83
2023-07-22T01:15:14.509Z,26.83
2023-07-22T01:15:24.518Z,26.83
2023-07-22T01:15:34.558Z,26.83
2023-07-22T01:15:44.576Z,26.83
2023-07-22T01:15:54.578Z,26.83
2023-07-22T01:16:04.592Z,26.83
2023-07-22T01:16:14.669Z,26.83
2023-07-22T01:16:25.020Z,26.83
2023-07-22T01:16:34.760Z,26.84
2023-07-22T01:16:44.942Z,26.83
2023-07-22T01:16:54.947Z,26.83
2023-07-22T01:17:05.084Z,26.84
2023-07-22T01:17:15.002Z,26.83
2023-07-22T01:17:25.350Z,26.83
2023-07-22T01:17:35.027Z,26.82
2023-07-22T01:17:45.110Z,26.82
2023-07-22T01:17:55.052Z,26.82
2023-07-22T01:18:05.162Z,26.81
2023-07-22T01:18:15.296Z,26.82
2023-07-22T01:18:25.298Z,26.81
2023-07-22T01:18:35.301Z,26.82
2023-07-22T01:18:45.321Z,26.81
2023-07-22T01:18:55.329Z,26.82
2023-07-22T01:19:05.333Z,26.81
2023-07-22T01:19:15.343Z,26.82
2023-07-22T01:19:25.359Z,26.82
2023-07-22T01:19:35.371Z,26.82
2023-07-22T01:19:45.384Z,26.83
2023-07-22T01:19:55.450Z,26.84
2023-07-22T01:20:05.477Z,26.85
2023-07-22T01:20:15.460Z,26.85
2023-07-22T01:20:25.468Z,26.85
2023-07-22T01:20:35.493Z,26.86
2023-07-22T01:20:45.500Z,26.87
2023-07-22T01:20:55.508Z,26.87
2023-07-22T01:21:05.510Z,26.87
2023-07-22T01:21:15.530Z,26.88
2023-07-22T01:21:25.538Z,26.89
2023-07-22T01:21:35.532Z,26.89
2023-07-22T01:21:45.553Z,26.90
2023-07-22T01:21:55.551Z,26.90
2023-07-22T01:22:05.669Z,26.91
2023-07-22T01:22:15.930Z,26.92
2023-07-22T01:22:25.948Z,26.93
2023-07-22T01:22:35.938Z,26.92
2023-07-22T01:22:45.957Z,26.93
2023-07-22T01:22:56.094Z,26.93
2023-07-22T01:23:05.988Z,26.93
2023-07-22T01:23:15.977Z,26.94
2023-07-22T01:23:26.003Z,26.94
2023-07-22T01:23:36.019Z,26.94
2023-07-22T01:23:46.009Z,26.95
2023-07-22T01:23:56.018Z,26.95
2023-07-22T01:24:06.026Z,26.95
2023-07-22T01:24:16.049Z,26.96
2023-07-22T01:24:26.133Z,26.96
2023-07-22T01:24:36.200Z,26.95
2023-07-22T01:24:46.261Z,26.96
2023-07-22T01:24:56.278Z,26.96
2023-07-22T01:25:06.285Z,26.96
2023-07-22T01:25:16.314Z,26.96
2023-07-22T01:25:28.164Z,26.96
2023-07-22T01:25:36.358Z,26.94
2023-07-22T01:25:46.371Z,26.95
2023-07-22T01:25:56.375Z,26.96
2023-07-22T01:26:06.510Z,26.97
2023-07-22T01:26:16.514Z,26.97
2023-07-22T01:26:26.805Z,26.97
2023-07-22T01:26:36.592Z,26.97
2023-07-22T01:26:46.592Z,26.97
2023-07-22T01:26:56.601Z,26.98
2023-07-22T01:27:06.601Z,26.98
2023-07-22T01:27:16.619Z,26.98
2023-07-22T01:27:26.632Z,26.99
2023-07-22T01:27:36.632Z,26.99
2023-07-22T01:27:46.642Z,26.99
2023-07-22T01:27:56.667Z,27.00
2023-07-22T01:28:06.662Z,27.00
2023-07-22T01:28:16.689Z,27.00
2023-07-22T01:28:26.688Z,27.01
2023-07-22T01:28:36.713Z,27.01
2023-07-22T01:28:46.703Z,27.01
2023-07-22T01:28:56.714Z,27.01
2023-07-22T01:29:06.738Z,27.01
2023-07-22T01:29:16.733Z,27.01
2023-07-22T01:29:26.786Z,27.02
2023-07-22T01:29:36.801Z,27.02
2023-07-22T01:29:46.805Z,27.02
2023-07-22T01:29:56.816Z,27.02
2023-07-22T01:30:06.831Z,27.01
2023-07-22T01:30:16.841Z,27.01
2023-07-22T01:30:26.875Z,27.02
2023-07-22T01:30:36.940Z,27.02
2023-07-22T01:30:47.013Z,27.02
2023-07-22T01:30:57.169Z,27.01
2023-07-22T01:31:07.097Z,27.01
2023-07-22T01:31:17.142Z,27.02
2023-07-22T01:31:27.142Z,27.02
2023-07-22T01:31:37.175Z,27.02
2023-07-22T01:31:47.167Z,27.02
2023-07-22T01:31:57.166Z,27.02
2023-07-22T01:32:07.166Z,27.03
2023-07-22T01:32:17.169Z,27.02
2023-07-22T01:32:27.179Z,27.03
2023-07-22T01:32:37.233Z,27.02
2023-07-22T01:32:47.255Z,27.03
2023-07-22T01:32:57.367Z,27.03
2023-07-22T01:33:07.463Z,27.04
2023-07-22T01:33:17.450Z,27.04
2023-07-22T01:33:27.451Z,27.03
2023-07-22T01:33:37.712Z,27.04
2023-07-22T01:33:47.730Z,27.04
2023-07-22T01:33:57.713Z,27.04
2023-07-22T01:34:07.719Z,27.04
2023-07-22T01:34:17.742Z,27.04
2023-07-22T01:34:27.755Z,27.04
2023-07-22T01:34:37.766Z,27.04
2023-07-22T01:34:47.761Z,27.04
2023-07-22T01:34:57.778Z,27.04
2023-07-22T01:35:07.786Z,27.04
2023-07-22T01:35:17.792Z,27.04
2023-07-22T01:35:27.830Z,27.03
2023-07-22T01:35:37.837Z,27.04
2023-07-22T01:35:47.837Z,27.04
2023-07-22T01:35:57.858Z,27.04
2023-07-22T01:36:07.845Z,27.04
2023-07-22T01:36:17.865Z,27.03
2023-07-22T01:36:28.061Z,27.03
2023-07-22T01:36:37.960Z,27.03
2023-07-22T01:36:47.974Z,27.03
2023-07-22T01:36:57.968Z,27.03
2023-07-22T01:37:08.245Z,27.03
2023-07-22T01:37:18.249Z,27.03
2023-07-22T01:37:28.250Z,27.03
2023-07-22T01:37:38.268Z,27.03
2023-07-22T01:37:48.277Z,27.03
2023-07-22T01:37:58.294Z,27.03
2023-07-22T01:38:08.292Z,27.04
2023-07-22T01:38:18.304Z,27.03
2023-07-22T01:38:28.312Z,27.03
2023-07-22T01:38:38.324Z,27.03
2023-07-22T01:38:48.331Z,27.03
2023-07-22T01:38:58.389Z,27.03
2023-07-22T01:39:08.396Z,27.03
2023-07-22T01:39:18.405Z,27.03
2023-07-22T01:39:28.408Z,27.03
2023-07-22T01:39:38.414Z,27.03
2023-07-22T01:39:48.412Z,27.03
2023-07-22T01:39:58.416Z,27.03
2023-07-22T01:40:08.430Z,27.03
2023-07-22T01:40:18.437Z,27.03
2023-07-22T01:40:28.455Z,27.03
2023-07-22T01:40:38.456Z,27.04
2023-07-22T01:40:48.457Z,27.03
2023-07-22T01:40:58.466Z,27.03
2023-07-22T01:41:08.478Z,27.03
2023-07-22T01:41:18.519Z,27.04
2023-07-22T01:41:28.525Z,27.03
2023-07-22T01:41:38.532Z,27.03
2023-07-22T01:41:48.536Z,27.02
2023-07-22T01:41:58.542Z,27.03
2023-07-22T01:42:08.548Z,27.03
2023-07-22T01:42:18.549Z,27.03
2023-07-22T01:42:28.554Z,27.03
2023-07-22T01:42:38.566Z,27.02
2023-07-22T01:42:48.575Z,27.03
2023-07-22T01:42:58.599Z,27.03
2023-07-22T01:43:08.604Z,27.02
2023-07-22T01:43:18.624Z,27.02
2023-07-22T01:43:28.623Z,27.03
2023-07-22T01:43:38.634Z,27.02
2023-07-22T01:43:48.632Z,27.03
2023-07-22T01:43:58.648Z,27.02
2023-07-22T01:44:08.650Z,27.02
2023-07-22T01:44:18.660Z,27.02
2023-07-22T01:44:28.674Z,27.02
2023-07-22T01:44:38.685Z,27.02
2023-07-22T01:44:48.689Z,27.02
2023-07-22T01:44:58.699Z,27.02
2023-07-22T01:45:08.718Z,27.02
2023-07-22T01:45:18.727Z,27.02
2023-07-22T01:45:28.730Z,27.02
2023-07-22T01:45:38.743Z,27.02
2023-07-22T01:45:48.757Z,27.02
2023-07-22T01:45:58.946Z,27.01
2023-07-22T01:46:08.898Z,27.02
2023-07-22T01:46:18.969Z,27.01
2023-07-22T01:46:29.461Z,27.01
2023-07-22T01:46:39.203Z,27.01
2023-07-22T01:46:49.309Z,27.01
2023-07-22T01:46:59.233Z,27.01
2023-07-22T01:47:09.234Z,27.00
2023-07-22T01:47:19.239Z,27.00
2023-07-22T01:47:29.273Z,27.01
2023-07-22T01:47:39.311Z,27.00
2023-07-22T01:47:49.431Z,27.00
2023-07-22T01:47:59.487Z,27.00
2023-07-22T01:48:09.568Z,26.99
2023-07-22T01:48:19.546Z,27.00
2023-07-22T01:48:29.561Z,26.99
2023-07-22T01:48:39.825Z,26.99
2023-07-22T01:48:49.830Z,26.99
2023-07-22T01:48:59.851Z,27.00
2023-07-22T01:49:09.850Z,26.99
2023-07-22T01:49:19.862Z,26.99
2023-07-22T01:49:29.878Z,26.99
2023-07-22T01:49:39.882Z,26.99
2023-07-22T01:49:49.887Z,26.99
2023-07-22T01:49:59.900Z,26.99
2023-07-22T01:50:09.943Z,26.99
2023-07-22T01:50:20.117Z,26.98
2023-07-22T01:50:30.042Z,26.98
2023-07-22T01:50:40.043Z,26.98
2023-07-22T01:50:50.057Z,26.97
2023-07-22T01:51:00.200Z,26.98
2023-07-22T01:51:10.205Z,26.98
2023-07-22T01:51:20.240Z,26.97
2023-07-22T01:51:30.248Z,26.98
2023-07-22T01:51:40.265Z,26.97
2023-07-22T01:51:50.265Z,26.97
2023-07-22T01:52:00.280Z,26.97
2023-07-22T01:52:10.296Z,26.97
2023-07-22T01:52:20.302Z,26.97
2023-07-22T01:52:30.305Z,26.97
2023-07-22T01:52:40.323Z,26.97
2023-07-22T01:52:50.348Z,26.96
2023-07-22T01:53:00.345Z,26.97
2023-07-22T01:53:10.366Z,26.97
2023-07-22T01:53:20.374Z,26.97
2023-07-22T01:53:30.385Z,26.97
2023-07-22T01:53:40.394Z,26.97
2023-07-22T01:53:50.398Z,26.97
2023-07-22T01:54:00.415Z,26.97
2023-07-22T01:54:10.444Z,26.97
2023-07-22T01:54:20.456Z,26.96
2023-07-22T01:54:30.477Z,26.97
2023-07-22T01:54:40.591Z,26.96
2023-07-22T01:54:50.599Z,26.96
2023-07-22T01:55:00.861Z,26.97
2023-07-22T01:55:10.854Z,26.96
2023-07-22T01:55:20.857Z,26.97
2023-07-22T01:55:30.869Z,26.96
2023-07-22T01:55:40.899Z,26.96
2023-07-22T01:55:50.913Z,26.96
2023-07-22T01:56:00.932Z,26.95
2023-07-22T01:56:10.942Z,26.95
2023-07-22T01:56:20.945Z,26.95
2023-07-22T01:56:30.947Z,26.95
2023-07-22T01:56:40.963Z,26.96
2023-07-22T01:56:51.039Z,26.95
2023-07-22T01:57:01.159Z,26.94
2023-07-22T01:57:11.160Z,26.94
2023-07-22T01:57:21.174Z,26.95
2023-07-22T01:57:31.174Z,26.94
2023-07-22T01:57:41.199Z,26.94
2023-07-22T01:57:51.464Z,26.93
2023-07-22T01:58:01.472Z,26.94
2023-07-22T01:58:11.485Z,26.93
2023-07-22T01:58:21.494Z,26.93
2023-07-22T01:58:31.502Z,26.92
2023-07-22T01:58:41.513Z,26.92
2023-07-22T01:58:51.524Z,26.93
2023-07-22T01:59:01.538Z,26.92
2023-07-22T01:59:11.549Z,26.92
2023-07-22T01:59:21.552Z,26.92
2023-07-22T01:59:31.566Z,26.92
2023-07-22T01:59:41.572Z,26.91
2023-07-22T01:59:51.596Z,26.90
2023-07-22T02:00:01.645Z,26.91
2023-07-22T02:00:11.659Z,26.90
2023-07-22T02:00:21.657Z,26.90
2023-07-22T02:00:31.686Z,26.90
2023-07-22T02:00:41.733Z,26.89
2023-07-22T02:00:51.761Z,26.89
2023-07-22T02:01:01.779Z,26.89
2023-07-22T02:01:11.834Z,26.89
2023-07-22T02:01:21.911Z,26.90
2023-07-22T02:01:31.986Z,26.89
2023-07-22T02:01:41.972Z,26.88
2023-07-22T02:01:51.997Z,26.88
2023-07-22T02:02:02.022Z,26.88
2023-07-22T02:02:12.067Z,26.88
2023-07-22T02:02:22.139Z,26.89
2023-07-22T02:02:32.269Z,26.87
2023-07-22T02:02:42.291Z,26.88
2023-07-22T02:02:52.446Z,26.88
2023-07-22T02:03:02.737Z,26.88
2023-07-22T02:03:12.838Z,26.87
2023-07-22T02:03:22.807Z,26.87
2023-07-22T02:03:32.775Z,26.87
2023-07-22T02:03:42.975Z,26.87
2023-07-22T02:03:52.987Z,26.87
2023-07-22T02:04:03.036Z,26.86
2023-07-22T02:04:13.312Z,26.86
2023-07-22T02:04:23.317Z,26.86
2023-07-22T02:04:33.428Z,26.86
2023-07-22T02:04:43.426Z,26.86
2023-07-22T02:04:53.461Z,26.85
2023-07-22T02:05:03.495Z,26.86
2023-07-22T02:05:13.563Z,26.85
2023-07-22T02:05:23.713Z,26.85
2023-07-22T02:05:33.725Z,26.85
2023-07-22T02:05:43.738Z,26.85
2023-07-22T02:05:53.739Z,26.85
2023-07-22T02:06:03.755Z,26.85
2023-07-22T02:06:13.766Z,26.85
2023-07-22T02:06:23.822Z,26.85
2023-07-22T02:06:34.081Z,26.84
2023-07-22T02:06:44.090Z,26.84
2023-07-22T02:06:54.108Z,26.84
2023-07-22T02:07:04.110Z,26.85
2023-07-22T02:07:14.130Z,26.84
2023-07-22T02:07:24.133Z,26.84
2023-07-22T02:07:34.151Z,26.84
2023-07-22T02:07:44.164Z,26.84
2023-07-22T02:07:54.158Z,26.83
2023-07-22T02:08:04.172Z,26.84
2023-07-22T02:08:14.207Z,26.84
2023-07-22T02:08:24.220Z,26.84
2023-07-22T02:08:34.225Z,26.83
2023-07-22T02:08:44.225Z,26.83
2023-07-22T02:08:54.255Z,26.83
2023-07-22T02:09:04.256Z,26.84